sensor_id;sensor_type;location;lat;lon;timestamp;P1;durP1;ratioP1;P2;durP2;ratioP2
44995;SDS011;30729;49.486;10.792;2022-07-25T00:01:37;12.10;;;10.18;;
44995;SDS011;30729;49.486;10.792;2022-07-25T00:04:02;13.35;;;10.43;;
44995;SDS011;30729;49.486;10.792;2022-07-25T00:06:28;14.00;;;10.68;;
44995;SDS011;30729;49.486;10.792;2022-07-25T00:08:53;14.30;;;10.75;;
44995;SDS011;30729;49.486;10.792;2022-07-25T00:11:19;13.80;;;11.02;;
44995;SDS011;30729;49.486;10.792;2022-07-25T00:13:44;14.07;;;11.18;;
44995;SDS011;30729;49.486;10.792;2022-07-25T00:16:10;12.88;;;10.82;;
44995;SDS011;30729;49.486;10.792;2022-07-25T00:18:35;13.05;;;10.57;;
44995;SDS011;30729;49.486;10.792;2022-07-25T00:21:00;15.20;;;10.73;;
44995;SDS011;30729;49.486;10.792;2022-07-25T00:23:26;12.93;;;10.85;;
44995;SDS011;30729;49.486;10.792;2022-07-25T00:25:51;13.60;;;11.63;;
44995;SDS011;30729;49.486;10.792;2022-07-25T00:28:16;15.23;;;10.88;;
44995;SDS011;30729;49.486;10.792;2022-07-25T00:30:42;14.32;;;10.90;;
44995;SDS011;30729;49.486;10.792;2022-07-25T00:33:07;14.30;;;11.45;;
44995;SDS011;30729;49.486;10.792;2022-07-25T00:35:33;14.02;;;11.30;;
44995;SDS011;30729;49.486;10.792;2022-07-25T00:37:58;15.18;;;12.38;;
44995;SDS011;30729;49.486;10.792;2022-07-25T00:40:24;15.35;;;12.00;;
44995;SDS011;30729;49.486;10.792;2022-07-25T00:42:49;15.57;;;11.82;;
44995;SDS011;30729;49.486;10.792;2022-07-25T00:45:15;16.70;;;11.80;;
44995;SDS011;30729;49.486;10.792;2022-07-25T00:47:40;15.85;;;12.55;;
44995;SDS011;30729;49.486;10.792;2022-07-25T00:50:06;16.13;;;11.45;;
44995;SDS011;30729;49.486;10.792;2022-07-25T00:52:32;15.57;;;12.70;;
44995;SDS011;30729;49.486;10.792;2022-07-25T00:54:58;13.60;;;11.38;;
44995;SDS011;30729;49.486;10.792;2022-07-25T00:57:24;15.20;;;11.43;;
44995;SDS011;30729;49.486;10.792;2022-07-25T00:59:49;16.60;;;12.20;;
44995;SDS011;30729;49.486;10.792;2022-07-25T01:02:14;17.30;;;11.60;;
44995;SDS011;30729;49.486;10.792;2022-07-25T01:04:40;15.07;;;11.10;;
44995;SDS011;30729;49.486;10.792;2022-07-25T01:07:05;15.73;;;12.50;;
44995;SDS011;30729;49.486;10.792;2022-07-25T01:09:31;15.93;;;12.70;;
44995;SDS011;30729;49.486;10.792;2022-07-25T01:11:57;13.40;;;11.98;;
44995;SDS011;30729;49.486;10.792;2022-07-25T01:14:22;15.50;;;12.55;;
44995;SDS011;30729;49.486;10.792;2022-07-25T01:16:48;14.38;;;11.23;;
44995;SDS011;30729;49.486;10.792;2022-07-25T01:19:13;13.60;;;11.18;;
44995;SDS011;30729;49.486;10.792;2022-07-25T01:21:39;14.65;;;11.50;;
44995;SDS011;30729;49.486;10.792;2022-07-25T01:24:07;13.82;;;11.73;;
44995;SDS011;30729;49.486;10.792;2022-07-25T01:26:33;13.60;;;10.70;;
44995;SDS011;30729;49.486;10.792;2022-07-25T01:28:59;13.80;;;10.55;;
44995;SDS011;30729;49.486;10.792;2022-07-25T01:31:24;14.35;;;11.38;;
44995;SDS011;30729;49.486;10.792;2022-07-25T01:33:50;12.93;;;11.25;;
44995;SDS011;30729;49.486;10.792;2022-07-25T01:36:15;15.35;;;11.80;;
44995;SDS011;30729;49.486;10.792;2022-07-25T01:38:41;14.77;;;11.10;;
44995;SDS011;30729;49.486;10.792;2022-07-25T01:41:06;14.70;;;11.95;;
44995;SDS011;30729;49.486;10.792;2022-07-25T01:43:31;12.95;;;11.45;;
44995;SDS011;30729;49.486;10.792;2022-07-25T01:45:57;15.43;;;11.45;;
44995;SDS011;30729;49.486;10.792;2022-07-25T01:48:22;15.45;;;11.70;;
44995;SDS011;30729;49.486;10.792;2022-07-25T01:50:48;14.32;;;10.95;;
44995;SDS011;30729;49.486;10.792;2022-07-25T01:53:13;14.88;;;11.65;;
44995;SDS011;30729;49.486;10.792;2022-07-25T01:55:38;14.82;;;12.27;;
44995;SDS011;30729;49.486;10.792;2022-07-25T01:58:04;15.07;;;11.90;;
44995;SDS011;30729;49.486;10.792;2022-07-25T02:00:29;14.48;;;11.68;;
44995;SDS011;30729;49.486;10.792;2022-07-25T02:02:54;15.55;;;12.05;;
44995;SDS011;30729;49.486;10.792;2022-07-25T02:05:38;14.97;;;12.13;;
44995;SDS011;30729;49.486;10.792;2022-07-25T02:08:04;16.35;;;12.93;;
44995;SDS011;30729;49.486;10.792;2022-07-25T02:10:30;15.50;;;11.80;;
44995;SDS011;30729;49.486;10.792;2022-07-25T02:12:55;16.58;;;13.45;;
44995;SDS011;30729;49.486;10.792;2022-07-25T02:15:21;16.25;;;12.18;;
44995;SDS011;30729;49.486;10.792;2022-07-25T02:17:46;17.50;;;11.57;;
44995;SDS011;30729;49.486;10.792;2022-07-25T02:20:12;17.80;;;11.90;;
44995;SDS011;30729;49.486;10.792;2022-07-25T02:22:37;17.73;;;12.77;;
44995;SDS011;30729;49.486;10.792;2022-07-25T02:25:02;18.67;;;11.65;;
44995;SDS011;30729;49.486;10.792;2022-07-25T02:27:28;16.85;;;11.80;;
44995;SDS011;30729;49.486;10.792;2022-07-25T02:29:53;14.45;;;11.95;;
44995;SDS011;30729;49.486;10.792;2022-07-25T02:32:22;14.77;;;11.27;;
44995;SDS011;30729;49.486;10.792;2022-07-25T02:34:47;16.20;;;12.30;;
44995;SDS011;30729;49.486;10.792;2022-07-25T02:37:12;15.68;;;12.65;;
44995;SDS011;30729;49.486;10.792;2022-07-25T02:39:38;16.42;;;12.20;;
44995;SDS011;30729;49.486;10.792;2022-07-25T02:42:03;14.38;;;12.55;;
44995;SDS011;30729;49.486;10.792;2022-07-25T02:44:29;15.57;;;12.27;;
44995;SDS011;30729;49.486;10.792;2022-07-25T02:46:54;15.48;;;13.05;;
44995;SDS011;30729;49.486;10.792;2022-07-25T02:49:19;15.88;;;14.18;;
44995;SDS011;30729;49.486;10.792;2022-07-25T02:51:45;16.85;;;13.70;;
44995;SDS011;30729;49.486;10.792;2022-07-25T02:54:10;15.98;;;13.13;;
44995;SDS011;30729;49.486;10.792;2022-07-25T02:56:36;14.13;;;11.50;;
44995;SDS011;30729;49.486;10.792;2022-07-25T02:59:02;14.52;;;12.85;;
44995;SDS011;30729;49.486;10.792;2022-07-25T03:01:27;17.83;;;12.20;;
44995;SDS011;30729;49.486;10.792;2022-07-25T03:03:53;15.30;;;11.77;;
44995;SDS011;30729;49.486;10.792;2022-07-25T03:06:18;16.35;;;12.30;;
44995;SDS011;30729;49.486;10.792;2022-07-25T03:08:44;15.90;;;12.70;;
44995;SDS011;30729;49.486;10.792;2022-07-25T03:11:09;15.13;;;12.32;;
44995;SDS011;30729;49.486;10.792;2022-07-25T03:13:35;14.45;;;12.63;;
44995;SDS011;30729;49.486;10.792;2022-07-25T03:16:00;15.52;;;13.15;;
44995;SDS011;30729;49.486;10.792;2022-07-25T03:18:26;16.40;;;12.98;;
44995;SDS011;30729;49.486;10.792;2022-07-25T03:20:51;16.88;;;13.48;;
44995;SDS011;30729;49.486;10.792;2022-07-25T03:23:17;18.33;;;14.10;;
44995;SDS011;30729;49.486;10.792;2022-07-25T03:25:42;17.85;;;13.90;;
44995;SDS011;30729;49.486;10.792;2022-07-25T03:28:07;15.95;;;13.27;;
44995;SDS011;30729;49.486;10.792;2022-07-25T03:30:33;17.02;;;14.45;;
44995;SDS011;30729;49.486;10.792;2022-07-25T03:32:58;17.17;;;13.95;;
44995;SDS011;30729;49.486;10.792;2022-07-25T03:35:23;16.17;;;13.05;;
44995;SDS011;30729;49.486;10.792;2022-07-25T03:37:50;18.05;;;13.48;;
44995;SDS011;30729;49.486;10.792;2022-07-25T03:40:16;18.02;;;13.85;;
44995;SDS011;30729;49.486;10.792;2022-07-25T03:42:41;17.70;;;14.45;;
44995;SDS011;30729;49.486;10.792;2022-07-25T03:45:07;16.52;;;13.23;;
44995;SDS011;30729;49.486;10.792;2022-07-25T03:47:32;17.40;;;15.00;;
44995;SDS011;30729;49.486;10.792;2022-07-25T03:49:58;18.40;;;14.63;;
44995;SDS011;30729;49.486;10.792;2022-07-25T03:52:23;17.15;;;13.77;;
44995;SDS011;30729;49.486;10.792;2022-07-25T03:54:48;17.13;;;14.20;;
44995;SDS011;30729;49.486;10.792;2022-07-25T03:57:14;17.38;;;14.10;;
44995;SDS011;30729;49.486;10.792;2022-07-25T03:59:39;16.55;;;13.35;;
44995;SDS011;30729;49.486;10.792;2022-07-25T04:02:05;16.40;;;13.45;;
44995;SDS011;30729;49.486;10.792;2022-07-25T04:04:30;15.80;;;13.75;;
44995;SDS011;30729;49.486;10.792;2022-07-25T04:06:56;15.88;;;12.90;;
44995;SDS011;30729;49.486;10.792;2022-07-25T04:09:21;16.33;;;13.95;;
44995;SDS011;30729;49.486;10.792;2022-07-25T04:11:46;17.35;;;13.95;;
44995;SDS011;30729;49.486;10.792;2022-07-25T04:14:12;16.75;;;13.48;;
44995;SDS011;30729;49.486;10.792;2022-07-25T04:16:38;16.83;;;13.52;;
44995;SDS011;30729;49.486;10.792;2022-07-25T04:19:04;17.90;;;14.07;;
44995;SDS011;30729;49.486;10.792;2022-07-25T04:21:29;16.85;;;13.65;;
44995;SDS011;30729;49.486;10.792;2022-07-25T04:23:55;18.35;;;14.38;;
44995;SDS011;30729;49.486;10.792;2022-07-25T04:26:20;16.00;;;13.90;;
44995;SDS011;30729;49.486;10.792;2022-07-25T04:28:46;17.13;;;14.30;;
44995;SDS011;30729;49.486;10.792;2022-07-25T04:31:11;17.65;;;14.10;;
44995;SDS011;30729;49.486;10.792;2022-07-25T04:33:37;20.38;;;14.27;;
44995;SDS011;30729;49.486;10.792;2022-07-25T04:36:03;20.83;;;15.60;;
44995;SDS011;30729;49.486;10.792;2022-07-25T04:38:29;19.70;;;13.55;;
44995;SDS011;30729;49.486;10.792;2022-07-25T04:40:54;18.05;;;14.63;;
44995;SDS011;30729;49.486;10.792;2022-07-25T04:43:20;22.23;;;14.57;;
44995;SDS011;30729;49.486;10.792;2022-07-25T04:45:45;18.00;;;14.25;;
44995;SDS011;30729;49.486;10.792;2022-07-25T04:48:11;17.45;;;13.63;;
44995;SDS011;30729;49.486;10.792;2022-07-25T04:50:36;17.75;;;15.18;;
44995;SDS011;30729;49.486;10.792;2022-07-25T04:53:02;17.38;;;14.30;;
44995;SDS011;30729;49.486;10.792;2022-07-25T04:55:28;18.42;;;12.93;;
44995;SDS011;30729;49.486;10.792;2022-07-25T04:57:53;18.52;;;14.10;;
44995;SDS011;30729;49.486;10.792;2022-07-25T05:00:19;17.88;;;14.43;;
44995;SDS011;30729;49.486;10.792;2022-07-25T05:02:44;22.23;;;14.20;;
44995;SDS011;30729;49.486;10.792;2022-07-25T05:05:09;16.92;;;14.00;;
44995;SDS011;30729;49.486;10.792;2022-07-25T05:07:35;18.67;;;13.98;;
44995;SDS011;30729;49.486;10.792;2022-07-25T05:10:01;16.52;;;14.18;;
44995;SDS011;30729;49.486;10.792;2022-07-25T05:12:29;19.23;;;13.80;;
44995;SDS011;30729;49.486;10.792;2022-07-25T05:14:54;19.88;;;15.20;;
44995;SDS011;30729;49.486;10.792;2022-07-25T05:17:20;18.27;;;14.50;;
44995;SDS011;30729;49.486;10.792;2022-07-25T05:19:46;17.88;;;13.93;;
44995;SDS011;30729;49.486;10.792;2022-07-25T05:22:11;16.50;;;13.45;;
44995;SDS011;30729;49.486;10.792;2022-07-25T05:24:37;18.17;;;14.93;;
44995;SDS011;30729;49.486;10.792;2022-07-25T05:27:03;16.95;;;13.43;;
44995;SDS011;30729;49.486;10.792;2022-07-25T05:29:29;18.45;;;14.43;;
44995;SDS011;30729;49.486;10.792;2022-07-25T05:31:54;16.25;;;13.65;;
44995;SDS011;30729;49.486;10.792;2022-07-25T05:34:20;18.52;;;12.90;;
44995;SDS011;30729;49.486;10.792;2022-07-25T05:36:45;14.77;;;12.15;;
44995;SDS011;30729;49.486;10.792;2022-07-25T05:39:10;17.08;;;12.88;;
44995;SDS011;30729;49.486;10.792;2022-07-25T05:41:36;16.00;;;12.98;;
44995;SDS011;30729;49.486;10.792;2022-07-25T05:44:02;16.08;;;12.35;;
44995;SDS011;30729;49.486;10.792;2022-07-25T05:46:27;17.45;;;12.40;;
44995;SDS011;30729;49.486;10.792;2022-07-25T05:48:53;14.85;;;12.90;;
44995;SDS011;30729;49.486;10.792;2022-07-25T05:51:18;17.25;;;13.10;;
44995;SDS011;30729;49.486;10.792;2022-07-25T05:53:44;16.58;;;12.38;;
44995;SDS011;30729;49.486;10.792;2022-07-25T05:56:09;15.02;;;11.82;;
44995;SDS011;30729;49.486;10.792;2022-07-25T05:58:34;13.82;;;11.15;;
44995;SDS011;30729;49.486;10.792;2022-07-25T06:01:04;14.02;;;11.25;;
44995;SDS011;30729;49.486;10.792;2022-07-25T06:03:31;16.00;;;12.80;;
44995;SDS011;30729;49.486;10.792;2022-07-25T06:05:58;14.82;;;11.48;;
44995;SDS011;30729;49.486;10.792;2022-07-25T06:08:24;15.57;;;11.45;;
44995;SDS011;30729;49.486;10.792;2022-07-25T06:10:52;16.40;;;10.80;;
44995;SDS011;30729;49.486;10.792;2022-07-25T06:13:18;16.70;;;11.65;;
44995;SDS011;30729;49.486;10.792;2022-07-25T06:15:44;15.20;;;11.20;;
44995;SDS011;30729;49.486;10.792;2022-07-25T06:18:09;16.92;;;11.02;;
44995;SDS011;30729;49.486;10.792;2022-07-25T06:20:34;16.77;;;10.32;;
44995;SDS011;30729;49.486;10.792;2022-07-25T06:23:00;16.88;;;10.85;;
44995;SDS011;30729;49.486;10.792;2022-07-25T06:25:27;15.70;;;10.40;;
44995;SDS011;30729;49.486;10.792;2022-07-25T06:27:52;12.02;;;9.45;;
44995;SDS011;30729;49.486;10.792;2022-07-25T06:30:17;13.70;;;9.80;;
44995;SDS011;30729;49.486;10.792;2022-07-25T06:32:43;11.63;;;9.55;;
44995;SDS011;30729;49.486;10.792;2022-07-25T06:35:08;12.65;;;9.82;;
44995;SDS011;30729;49.486;10.792;2022-07-25T06:37:35;14.35;;;10.07;;
44995;SDS011;30729;49.486;10.792;2022-07-25T06:40:02;13.50;;;10.23;;
44995;SDS011;30729;49.486;10.792;2022-07-25T06:42:28;11.63;;;9.48;;
44995;SDS011;30729;49.486;10.792;2022-07-25T06:44:55;14.77;;;9.77;;
44995;SDS011;30729;49.486;10.792;2022-07-25T06:47:20;13.63;;;9.98;;
44995;SDS011;30729;49.486;10.792;2022-07-25T06:49:46;14.20;;;9.10;;
44995;SDS011;30729;49.486;10.792;2022-07-25T06:52:11;13.45;;;9.50;;
44995;SDS011;30729;49.486;10.792;2022-07-25T06:54:37;11.77;;;9.70;;
44995;SDS011;30729;49.486;10.792;2022-07-25T06:57:02;14.05;;;9.27;;
44995;SDS011;30729;49.486;10.792;2022-07-25T06:59:28;12.57;;;9.48;;
44995;SDS011;30729;49.486;10.792;2022-07-25T07:01:53;13.43;;;9.68;;
44995;SDS011;30729;49.486;10.792;2022-07-25T07:04:19;13.57;;;9.18;;
44995;SDS011;30729;49.486;10.792;2022-07-25T07:06:44;13.60;;;10.02;;
44995;SDS011;30729;49.486;10.792;2022-07-25T07:09:09;12.10;;;9.60;;
44995;SDS011;30729;49.486;10.792;2022-07-25T07:11:35;12.27;;;9.60;;
44995;SDS011;30729;49.486;10.792;2022-07-25T07:14:01;11.63;;;9.23;;
44995;SDS011;30729;49.486;10.792;2022-07-25T07:16:27;13.25;;;9.65;;
44995;SDS011;30729;49.486;10.792;2022-07-25T07:18:53;12.07;;;9.15;;
44995;SDS011;30729;49.486;10.792;2022-07-25T07:21:19;11.40;;;9.10;;
44995;SDS011;30729;49.486;10.792;2022-07-25T07:23:44;10.68;;;8.88;;
44995;SDS011;30729;49.486;10.792;2022-07-25T07:26:09;12.90;;;9.35;;
44995;SDS011;30729;49.486;10.792;2022-07-25T07:28:35;11.73;;;9.18;;
44995;SDS011;30729;49.486;10.792;2022-07-25T07:31:00;12.00;;;8.35;;
44995;SDS011;30729;49.486;10.792;2022-07-25T07:33:25;13.38;;;8.32;;
44995;SDS011;30729;49.486;10.792;2022-07-25T07:35:51;13.27;;;8.30;;
44995;SDS011;30729;49.486;10.792;2022-07-25T07:38:16;12.70;;;8.57;;
44995;SDS011;30729;49.486;10.792;2022-07-25T07:40:42;12.77;;;8.80;;
44995;SDS011;30729;49.486;10.792;2022-07-25T07:43:07;13.23;;;8.40;;
44995;SDS011;30729;49.486;10.792;2022-07-25T07:45:33;11.18;;;7.93;;
44995;SDS011;30729;49.486;10.792;2022-07-25T07:47:59;11.32;;;8.43;;
44995;SDS011;30729;49.486;10.792;2022-07-25T07:50:25;11.60;;;7.82;;
44995;SDS011;30729;49.486;10.792;2022-07-25T07:52:52;11.80;;;8.95;;
44995;SDS011;30729;49.486;10.792;2022-07-25T07:55:19;10.85;;;8.00;;
44995;SDS011;30729;49.486;10.792;2022-07-25T08:00:29;10.57;;;7.50;;
44995;SDS011;30729;49.486;10.792;2022-07-25T08:02:56;10.20;;;7.38;;
44995;SDS011;30729;49.486;10.792;2022-07-25T08:05:26;10.93;;;7.20;;
44995;SDS011;30729;49.486;10.792;2022-07-25T08:07:54;10.68;;;7.50;;
44995;SDS011;30729;49.486;10.792;2022-07-25T08:10:20;9.70;;;7.68;;
44995;SDS011;30729;49.486;10.792;2022-07-25T08:12:47;13.43;;;7.93;;
44995;SDS011;30729;49.486;10.792;2022-07-25T08:15:13;10.63;;;7.80;;
44995;SDS011;30729;49.486;10.792;2022-07-25T08:17:39;11.43;;;7.60;;
44995;SDS011;30729;49.486;10.792;2022-07-25T08:20:05;10.55;;;7.22;;
44995;SDS011;30729;49.486;10.792;2022-07-25T08:22:42;11.25;;;7.70;;
44995;SDS011;30729;49.486;10.792;2022-07-25T08:25:09;10.63;;;7.78;;
44995;SDS011;30729;49.486;10.792;2022-07-25T08:27:37;9.60;;;6.95;;
44995;SDS011;30729;49.486;10.792;2022-07-25T08:30:03;9.75;;;7.35;;
44995;SDS011;30729;49.486;10.792;2022-07-25T08:32:30;12.27;;;6.97;;
44995;SDS011;30729;49.486;10.792;2022-07-25T08:34:56;9.73;;;7.18;;
44995;SDS011;30729;49.486;10.792;2022-07-25T08:37:21;10.52;;;7.32;;
44995;SDS011;30729;49.486;10.792;2022-07-25T08:39:47;8.18;;;6.70;;
44995;SDS011;30729;49.486;10.792;2022-07-25T08:42:13;8.68;;;7.28;;
44995;SDS011;30729;49.486;10.792;2022-07-25T08:44:40;10.48;;;7.13;;
44995;SDS011;30729;49.486;10.792;2022-07-25T08:47:08;9.82;;;7.43;;
44995;SDS011;30729;49.486;10.792;2022-07-25T08:49:34;10.45;;;7.63;;
44995;SDS011;30729;49.486;10.792;2022-07-25T08:52:01;10.88;;;7.20;;
44995;SDS011;30729;49.486;10.792;2022-07-25T08:54:29;11.18;;;7.85;;
44995;SDS011;30729;49.486;10.792;2022-07-25T08:56:55;11.73;;;7.82;;
44995;SDS011;30729;49.486;10.792;2022-07-25T08:59:20;9.70;;;6.85;;
44995;SDS011;30729;49.486;10.792;2022-07-25T09:01:46;9.90;;;7.45;;
44995;SDS011;30729;49.486;10.792;2022-07-25T09:04:11;10.27;;;7.22;;
44995;SDS011;30729;49.486;10.792;2022-07-25T09:06:47;9.95;;;7.32;;
44995;SDS011;30729;49.486;10.792;2022-07-25T09:09:14;10.13;;;7.47;;
44995;SDS011;30729;49.486;10.792;2022-07-25T09:11:39;10.50;;;7.35;;
44995;SDS011;30729;49.486;10.792;2022-07-25T09:14:06;10.98;;;7.15;;
44995;SDS011;30729;49.486;10.792;2022-07-25T09:16:35;8.98;;;6.88;;
44995;SDS011;30729;49.486;10.792;2022-07-25T09:19:23;17.52;;;7.72;;
44995;SDS011;30729;49.486;10.792;2022-07-25T09:22:03;11.75;;;7.60;;
44995;SDS011;30729;49.486;10.792;2022-07-25T09:24:30;10.52;;;7.47;;
44995;SDS011;30729;49.486;10.792;2022-07-25T09:26:57;8.80;;;6.78;;
44995;SDS011;30729;49.486;10.792;2022-07-25T09:29:25;10.25;;;7.70;;
44995;SDS011;30729;49.486;10.792;2022-07-25T09:31:52;9.55;;;7.50;;
44995;SDS011;30729;49.486;10.792;2022-07-25T09:34:37;9.98;;;8.18;;
44995;SDS011;30729;49.486;10.792;2022-07-25T09:37:05;11.57;;;7.10;;
44995;SDS011;30729;49.486;10.792;2022-07-25T09:39:53;8.73;;;7.20;;
44995;SDS011;30729;49.486;10.792;2022-07-25T09:47:30;9.43;;;6.85;;
44995;SDS011;30729;49.486;10.792;2022-07-25T09:49:57;9.88;;;7.45;;
44995;SDS011;30729;49.486;10.792;2022-07-25T09:52:23;10.15;;;7.32;;
44995;SDS011;30729;49.486;10.792;2022-07-25T09:54:48;9.55;;;7.65;;
44995;SDS011;30729;49.486;10.792;2022-07-25T09:57:14;10.52;;;8.00;;
44995;SDS011;30729;49.486;10.792;2022-07-25T09:59:40;8.65;;;7.03;;
44995;SDS011;30729;49.486;10.792;2022-07-25T10:07:53;11.68;;;8.10;;
44995;SDS011;30729;49.486;10.792;2022-07-25T10:12:58;12.38;;;7.18;;
44995;SDS011;30729;49.486;10.792;2022-07-25T10:15:25;10.15;;;7.47;;
44995;SDS011;30729;49.486;10.792;2022-07-25T10:18:00;10.43;;;8.00;;
44995;SDS011;30729;49.486;10.792;2022-07-25T10:20:27;12.38;;;7.78;;
44995;SDS011;30729;49.486;10.792;2022-07-25T10:22:53;10.13;;;7.13;;
44995;SDS011;30729;49.486;10.792;2022-07-25T10:25:18;8.40;;;6.85;;
44995;SDS011;30729;49.486;10.792;2022-07-25T10:27:49;12.00;;;6.65;;
44995;SDS011;30729;49.486;10.792;2022-07-25T10:30:25;9.77;;;6.38;;
44995;SDS011;30729;49.486;10.792;2022-07-25T10:32:56;10.32;;;6.80;;
44995;SDS011;30729;49.486;10.792;2022-07-25T10:35:27;9.05;;;6.93;;
44995;SDS011;30729;49.486;10.792;2022-07-25T10:37:54;10.38;;;7.38;;
44995;SDS011;30729;49.486;10.792;2022-07-25T10:40:54;9.02;;;7.28;;
44995;SDS011;30729;49.486;10.792;2022-07-25T10:43:13;9.13;;;6.95;;
44995;SDS011;30729;49.486;10.792;2022-07-25T10:45:47;9.48;;;7.15;;
44995;SDS011;30729;49.486;10.792;2022-07-25T10:48:24;10.95;;;7.30;;
44995;SDS011;30729;49.486;10.792;2022-07-25T10:53:31;10.50;;;7.18;;
44995;SDS011;30729;49.486;10.792;2022-07-25T10:56:08;11.90;;;6.72;;
44995;SDS011;30729;49.486;10.792;2022-07-25T10:58:40;8.77;;;6.78;;
44995;SDS011;30729;49.486;10.792;2022-07-25T11:01:08;8.43;;;6.63;;
44995;SDS011;30729;49.486;10.792;2022-07-25T11:03:34;10.20;;;6.60;;
44995;SDS011;30729;49.486;10.792;2022-07-25T11:05:59;9.35;;;6.38;;
44995;SDS011;30729;49.486;10.792;2022-07-25T11:08:31;9.07;;;6.68;;
44995;SDS011;30729;49.486;10.792;2022-07-25T11:10:57;10.10;;;6.47;;
44995;SDS011;30729;49.486;10.792;2022-07-25T11:13:22;8.07;;;6.38;;
44995;SDS011;30729;49.486;10.792;2022-07-25T11:15:48;9.25;;;6.50;;
44995;SDS011;30729;49.486;10.792;2022-07-25T11:18:13;11.98;;;6.43;;
44995;SDS011;30729;49.486;10.792;2022-07-25T11:20:39;8.45;;;6.25;;
44995;SDS011;30729;49.486;10.792;2022-07-25T11:23:04;9.77;;;6.85;;
44995;SDS011;30729;49.486;10.792;2022-07-25T11:25:30;10.88;;;6.53;;
44995;SDS011;30729;49.486;10.792;2022-07-25T11:27:57;8.82;;;6.45;;
44995;SDS011;30729;49.486;10.792;2022-07-25T11:30:23;11.25;;;6.97;;
44995;SDS011;30729;49.486;10.792;2022-07-25T11:32:53;10.70;;;6.32;;
44995;SDS011;30729;49.486;10.792;2022-07-25T11:35:22;8.20;;;6.07;;
44995;SDS011;30729;49.486;10.792;2022-07-25T11:37:49;9.20;;;6.82;;
44995;SDS011;30729;49.486;10.792;2022-07-25T11:40:16;9.73;;;6.50;;
44995;SDS011;30729;49.486;10.792;2022-07-25T11:45:22;7.65;;;6.35;;
44995;SDS011;30729;49.486;10.792;2022-07-25T11:48:00;7.68;;;6.20;;
44995;SDS011;30729;49.486;10.792;2022-07-25T11:50:38;10.80;;;6.22;;
44995;SDS011;30729;49.486;10.792;2022-07-25T11:53:07;9.43;;;6.53;;
44995;SDS011;30729;49.486;10.792;2022-07-25T11:55:34;9.07;;;6.53;;
44995;SDS011;30729;49.486;10.792;2022-07-25T11:58:04;9.10;;;6.50;;
44995;SDS011;30729;49.486;10.792;2022-07-25T12:00:32;10.05;;;7.13;;
44995;SDS011;30729;49.486;10.792;2022-07-25T12:03:09;11.32;;;7.22;;
44995;SDS011;30729;49.486;10.792;2022-07-25T12:05:37;10.23;;;6.47;;
44995;SDS011;30729;49.486;10.792;2022-07-25T12:08:12;9.38;;;6.90;;
44995;SDS011;30729;49.486;10.792;2022-07-25T12:10:39;8.90;;;5.78;;
44995;SDS011;30729;49.486;10.792;2022-07-25T12:13:06;7.53;;;5.70;;
44995;SDS011;30729;49.486;10.792;2022-07-25T12:15:35;10.20;;;6.07;;
44995;SDS011;30729;49.486;10.792;2022-07-25T12:18:02;7.97;;;6.15;;
44995;SDS011;30729;49.486;10.792;2022-07-25T12:20:30;8.30;;;6.00;;
44995;SDS011;30729;49.486;10.792;2022-07-25T12:22:58;8.38;;;5.68;;
44995;SDS011;30729;49.486;10.792;2022-07-25T12:25:28;9.02;;;5.72;;
44995;SDS011;30729;49.486;10.792;2022-07-25T12:27:54;10.18;;;5.82;;
44995;SDS011;30729;49.486;10.792;2022-07-25T12:30:22;9.93;;;5.85;;
44995;SDS011;30729;49.486;10.792;2022-07-25T12:32:48;8.68;;;5.45;;
44995;SDS011;30729;49.486;10.792;2022-07-25T12:35:14;6.90;;;4.90;;
44995;SDS011;30729;49.486;10.792;2022-07-25T12:37:40;6.55;;;4.35;;
44995;SDS011;30729;49.486;10.792;2022-07-25T12:40:06;8.15;;;4.93;;
44995;SDS011;30729;49.486;10.792;2022-07-25T12:42:32;6.50;;;4.13;;
44995;SDS011;30729;49.486;10.792;2022-07-25T12:44:57;6.57;;;4.35;;
44995;SDS011;30729;49.486;10.792;2022-07-25T12:47:23;7.03;;;4.60;;
44995;SDS011;30729;49.486;10.792;2022-07-25T12:49:51;7.25;;;5.28;;
44995;SDS011;30729;49.486;10.792;2022-07-25T12:52:16;7.07;;;5.20;;
44995;SDS011;30729;49.486;10.792;2022-07-25T12:54:41;8.88;;;5.13;;
44995;SDS011;30729;49.486;10.792;2022-07-25T12:57:08;7.35;;;5.28;;
44995;SDS011;30729;49.486;10.792;2022-07-25T12:59:35;8.77;;;5.13;;
44995;SDS011;30729;49.486;10.792;2022-07-25T13:02:00;7.20;;;4.70;;
44995;SDS011;30729;49.486;10.792;2022-07-25T13:04:26;6.82;;;4.78;;
44995;SDS011;30729;49.486;10.792;2022-07-25T13:06:53;9.13;;;4.53;;
44995;SDS011;30729;49.486;10.792;2022-07-25T13:09:19;6.53;;;3.50;;
44995;SDS011;30729;49.486;10.792;2022-07-25T13:11:45;5.07;;;3.28;;
44995;SDS011;30729;49.486;10.792;2022-07-25T13:14:11;5.00;;;3.30;;
44995;SDS011;30729;49.486;10.792;2022-07-25T13:16:36;6.72;;;3.35;;
44995;SDS011;30729;49.486;10.792;2022-07-25T13:19:03;5.28;;;3.30;;
44995;SDS011;30729;49.486;10.792;2022-07-25T13:21:28;5.03;;;3.00;;
44995;SDS011;30729;49.486;10.792;2022-07-25T13:23:55;5.85;;;3.70;;
44995;SDS011;30729;49.486;10.792;2022-07-25T13:26:23;6.57;;;3.60;;
44995;SDS011;30729;49.486;10.792;2022-07-25T13:28:49;4.75;;;2.83;;
44995;SDS011;30729;49.486;10.792;2022-07-25T13:31:16;5.88;;;3.40;;
44995;SDS011;30729;49.486;10.792;2022-07-25T13:33:43;7.43;;;3.20;;
44995;SDS011;30729;49.486;10.792;2022-07-25T13:36:09;5.55;;;3.05;;
44995;SDS011;30729;49.486;10.792;2022-07-25T13:38:34;7.03;;;3.40;;
44995;SDS011;30729;49.486;10.792;2022-07-25T13:41:02;5.25;;;3.30;;
44995;SDS011;30729;49.486;10.792;2022-07-25T13:43:28;5.03;;;3.42;;
44995;SDS011;30729;49.486;10.792;2022-07-25T13:45:53;5.20;;;3.22;;
44995;SDS011;30729;49.486;10.792;2022-07-25T13:48:18;6.95;;;3.20;;
44995;SDS011;30729;49.486;10.792;2022-07-25T13:50:44;6.50;;;3.80;;
44995;SDS011;30729;49.486;10.792;2022-07-25T13:53:09;6.38;;;3.83;;
44995;SDS011;30729;49.486;10.792;2022-07-25T13:55:35;6.30;;;4.00;;
44995;SDS011;30729;49.486;10.792;2022-07-25T13:58:00;5.30;;;3.60;;
44995;SDS011;30729;49.486;10.792;2022-07-25T14:00:26;5.35;;;3.53;;
44995;SDS011;30729;49.486;10.792;2022-07-25T14:02:51;7.05;;;4.30;;
44995;SDS011;30729;49.486;10.792;2022-07-25T14:05:17;6.22;;;3.72;;
44995;SDS011;30729;49.486;10.792;2022-07-25T14:07:42;7.32;;;3.95;;
44995;SDS011;30729;49.486;10.792;2022-07-25T14:10:08;7.85;;;4.25;;
44995;SDS011;30729;49.486;10.792;2022-07-25T14:12:34;6.05;;;4.03;;
44995;SDS011;30729;49.486;10.792;2022-07-25T14:15:00;6.90;;;4.50;;
44995;SDS011;30729;49.486;10.792;2022-07-25T14:17:27;7.20;;;4.13;;
44995;SDS011;30729;49.486;10.792;2022-07-25T14:19:52;6.68;;;3.83;;
44995;SDS011;30729;49.486;10.792;2022-07-25T14:22:18;8.80;;;4.45;;
44995;SDS011;30729;49.486;10.792;2022-07-25T14:24:43;6.65;;;4.85;;
44995;SDS011;30729;49.486;10.792;2022-07-25T14:27:09;6.38;;;4.30;;
44995;SDS011;30729;49.486;10.792;2022-07-25T14:29:35;9.30;;;4.47;;
44995;SDS011;30729;49.486;10.792;2022-07-25T14:32:02;7.60;;;4.97;;
44995;SDS011;30729;49.486;10.792;2022-07-25T14:34:29;8.80;;;5.00;;
44995;SDS011;30729;49.486;10.792;2022-07-25T14:36:54;9.13;;;4.85;;